sensor_id;sensor_type;location;lat;lon;timestamp;P1;durP1;ratioP1;P2;durP2;ratioP2
46897;SDS011;32646;50.958;6.258;2023-09-07T00:00:42;7.72;;;3.65;;
46897;SDS011;32646;50.958;6.258;2023-09-07T00:03:09;7.70;;;3.53;;
46897;SDS011;32646;50.958;6.258;2023-09-07T00:05:36;8.82;;;4.05;;
46897;SDS011;32646;50.958;6.258;2023-09-07T00:08:02;5.70;;;3.40;;
46897;SDS011;32646;50.958;6.258;2023-09-07T00:10:29;8.63;;;3.55;;
46897;SDS011;32646;50.958;6.258;2023-09-07T00:12:56;8.02;;;3.78;;
46897;SDS011;32646;50.958;6.258;2023-09-07T00:15:22;8.32;;;4.10;;
46897;SDS011;32646;50.958;6.258;2023-09-07T00:17:49;8.90;;;3.95;;
46897;SDS011;32646;50.958;6.258;2023-09-07T00:20:16;8.43;;;3.60;;
46897;SDS011;32646;50.958;6.258;2023-09-07T00:22:42;9.15;;;4.20;;
46897;SDS011;32646;50.958;6.258;2023-09-07T00:25:09;8.13;;;4.20;;
46897;SDS011;32646;50.958;6.258;2023-09-07T00:27:36;9.38;;;4.18;;
46897;SDS011;32646;50.958;6.258;2023-09-07T00:30:02;7.28;;;3.67;;
46897;SDS011;32646;50.958;6.258;2023-09-07T00:32:29;9.63;;;4.97;;
46897;SDS011;32646;50.958;6.258;2023-09-07T00:34:57;7.45;;;3.70;;
46897;SDS011;32646;50.958;6.258;2023-09-07T00:37:24;11.57;;;4.55;;
46897;SDS011;32646;50.958;6.258;2023-09-07T00:39:51;9.27;;;4.60;;
46897;SDS011;32646;50.958;6.258;2023-09-07T00:42:17;8.73;;;4.68;;
46897;SDS011;32646;50.958;6.258;2023-09-07T00:44:44;8.60;;;4.35;;
46897;SDS011;32646;50.958;6.258;2023-09-07T00:47:11;12.55;;;4.55;;
46897;SDS011;32646;50.958;6.258;2023-09-07T00:49:37;10.27;;;4.65;;
46897;SDS011;32646;50.958;6.258;2023-09-07T00:52:05;9.20;;;4.70;;
46897;SDS011;32646;50.958;6.258;2023-09-07T00:54:32;10.60;;;4.32;;
46897;SDS011;32646;50.958;6.258;2023-09-07T00:56:59;8.25;;;4.40;;
46897;SDS011;32646;50.958;6.258;2023-09-07T00:59:26;8.65;;;4.20;;
46897;SDS011;32646;50.958;6.258;2023-09-07T01:01:53;11.15;;;5.13;;
46897;SDS011;32646;50.958;6.258;2023-09-07T01:04:20;11.05;;;4.65;;
46897;SDS011;32646;50.958;6.258;2023-09-07T01:06:51;9.15;;;4.05;;
46897;SDS011;32646;50.958;6.258;2023-09-07T01:09:23;8.00;;;4.57;;
46897;SDS011;32646;50.958;6.258;2023-09-07T01:11:52;11.25;;;4.40;;
46897;SDS011;32646;50.958;6.258;2023-09-07T01:14:19;12.10;;;4.85;;
46897;SDS011;32646;50.958;6.258;2023-09-07T01:16:45;8.65;;;4.43;;
46897;SDS011;32646;50.958;6.258;2023-09-07T01:19:12;8.95;;;4.63;;
46897;SDS011;32646;50.958;6.258;2023-09-07T01:21:39;9.60;;;4.82;;
46897;SDS011;32646;50.958;6.258;2023-09-07T01:24:06;9.02;;;4.53;;
46897;SDS011;32646;50.958;6.258;2023-09-07T01:26:38;9.85;;;4.68;;
46897;SDS011;32646;50.958;6.258;2023-09-07T01:29:05;8.77;;;4.53;;
46897;SDS011;32646;50.958;6.258;2023-09-07T01:31:38;9.32;;;4.55;;
46897;SDS011;32646;50.958;6.258;2023-09-07T01:34:05;13.70;;;5.10;;
46897;SDS011;32646;50.958;6.258;2023-09-07T01:36:32;12.57;;;5.10;;
46897;SDS011;32646;50.958;6.258;2023-09-07T01:38:59;8.95;;;4.57;;
46897;SDS011;32646;50.958;6.258;2023-09-07T01:41:26;9.38;;;4.65;;
46897;SDS011;32646;50.958;6.258;2023-09-07T01:43:52;9.85;;;5.30;;
46897;SDS011;32646;50.958;6.258;2023-09-07T01:46:19;8.13;;;4.40;;
46897;SDS011;32646;50.958;6.258;2023-09-07T01:48:46;15.05;;;4.80;;
46897;SDS011;32646;50.958;6.258;2023-09-07T01:51:12;8.55;;;4.57;;
46897;SDS011;32646;50.958;6.258;2023-09-07T01:53:39;12.80;;;4.70;;
46897;SDS011;32646;50.958;6.258;2023-09-07T01:56:05;10.50;;;5.40;;
46897;SDS011;32646;50.958;6.258;2023-09-07T01:58:32;9.98;;;5.00;;
46897;SDS011;32646;50.958;6.258;2023-09-07T02:01:00;9.95;;;5.15;;
46897;SDS011;32646;50.958;6.258;2023-09-07T02:03:26;10.15;;;4.95;;
46897;SDS011;32646;50.958;6.258;2023-09-07T02:05:53;10.05;;;5.22;;
46897;SDS011;32646;50.958;6.258;2023-09-07T02:08:20;11.38;;;4.88;;
46897;SDS011;32646;50.958;6.258;2023-09-07T02:10:46;9.73;;;4.53;;
46897;SDS011;32646;50.958;6.258;2023-09-07T02:13:13;11.98;;;4.70;;
46897;SDS011;32646;50.958;6.258;2023-09-07T02:15:40;7.82;;;4.57;;
46897;SDS011;32646;50.958;6.258;2023-09-07T02:18:06;10.07;;;4.88;;
46897;SDS011;32646;50.958;6.258;2023-09-07T02:20:33;8.48;;;4.15;;
46897;SDS011;32646;50.958;6.258;2023-09-07T02:23:00;10.80;;;4.35;;
46897;SDS011;32646;50.958;6.258;2023-09-07T02:25:27;7.28;;;4.13;;
46897;SDS011;32646;50.958;6.258;2023-09-07T02:27:53;8.68;;;4.25;;
46897;SDS011;32646;50.958;6.258;2023-09-07T02:30:20;9.23;;;4.63;;
46897;SDS011;32646;50.958;6.258;2023-09-07T02:32:46;10.05;;;4.63;;
46897;SDS011;32646;50.958;6.258;2023-09-07T02:35:13;11.35;;;4.97;;
46897;SDS011;32646;50.958;6.258;2023-09-07T02:37:40;7.55;;;4.00;;
46897;SDS011;32646;50.958;6.258;2023-09-07T02:40:07;8.52;;;4.40;;
46897;SDS011;32646;50.958;6.258;2023-09-07T02:42:34;9.15;;;4.20;;
46897;SDS011;32646;50.958;6.258;2023-09-07T02:45:00;9.13;;;4.75;;
46897;SDS011;32646;50.958;6.258;2023-09-07T02:47:30;8.88;;;4.63;;
46897;SDS011;32646;50.958;6.258;2023-09-07T02:49:56;9.80;;;4.80;;
46897;SDS011;32646;50.958;6.258;2023-09-07T02:52:23;12.05;;;4.80;;
46897;SDS011;32646;50.958;6.258;2023-09-07T02:54:49;8.85;;;4.32;;
46897;SDS011;32646;50.958;6.258;2023-09-07T02:57:16;8.40;;;4.82;;
46897;SDS011;32646;50.958;6.258;2023-09-07T02:59:43;9.07;;;4.13;;
46897;SDS011;32646;50.958;6.258;2023-09-07T03:02:09;8.88;;;4.07;;
46897;SDS011;32646;50.958;6.258;2023-09-07T03:04:36;7.97;;;5.13;;
46897;SDS011;32646;50.958;6.258;2023-09-07T03:07:02;9.55;;;4.68;;
46897;SDS011;32646;50.958;6.258;2023-09-07T03:09:29;8.02;;;4.13;;
46897;SDS011;32646;50.958;6.258;2023-09-07T03:11:56;9.63;;;4.78;;
46897;SDS011;32646;50.958;6.258;2023-09-07T03:14:23;10.75;;;4.72;;
46897;SDS011;32646;50.958;6.258;2023-09-07T03:16:49;9.70;;;4.57;;
46897;SDS011;32646;50.958;6.258;2023-09-07T03:19:16;9.02;;;4.53;;
46897;SDS011;32646;50.958;6.258;2023-09-07T03:21:43;8.95;;;4.57;;
46897;SDS011;32646;50.958;6.258;2023-09-07T03:24:09;8.77;;;4.82;;
46897;SDS011;32646;50.958;6.258;2023-09-07T03:26:36;8.50;;;4.68;;
46897;SDS011;32646;50.958;6.258;2023-09-07T03:29:03;8.60;;;4.32;;
46897;SDS011;32646;50.958;6.258;2023-09-07T03:31:29;8.30;;;3.95;;
46897;SDS011;32646;50.958;6.258;2023-09-07T03:33:56;8.40;;;4.13;;
46897;SDS011;32646;50.958;6.258;2023-09-07T03:36:23;9.38;;;4.85;;
46897;SDS011;32646;50.958;6.258;2023-09-07T03:38:49;9.57;;;5.13;;
46897;SDS011;32646;50.958;6.258;2023-09-07T03:41:16;8.52;;;4.35;;
46897;SDS011;32646;50.958;6.258;2023-09-07T03:43:42;7.82;;;4.18;;
46897;SDS011;32646;50.958;6.258;2023-09-07T03:46:09;10.40;;;4.30;;
46897;SDS011;32646;50.958;6.258;2023-09-07T03:48:35;9.77;;;4.85;;
46897;SDS011;32646;50.958;6.258;2023-09-07T03:51:06;8.65;;;4.65;;
46897;SDS011;32646;50.958;6.258;2023-09-07T03:53:33;8.63;;;4.03;;
46897;SDS011;32646;50.958;6.258;2023-09-07T03:56:01;7.00;;;3.72;;
46897;SDS011;32646;50.958;6.258;2023-09-07T03:58:28;11.27;;;4.55;;
46897;SDS011;32646;50.958;6.258;2023-09-07T04:00:58;9.77;;;4.25;;
46897;SDS011;32646;50.958;6.258;2023-09-07T04:03:25;7.88;;;4.15;;
46897;SDS011;32646;50.958;6.258;2023-09-07T04:05:52;7.50;;;3.70;;
46897;SDS011;32646;50.958;6.258;2023-09-07T04:08:19;9.73;;;4.32;;
46897;SDS011;32646;50.958;6.258;2023-09-07T04:10:46;7.15;;;4.30;;
46897;SDS011;32646;50.958;6.258;2023-09-07T04:13:12;8.57;;;4.05;;
46897;SDS011;32646;50.958;6.258;2023-09-07T04:15:42;8.98;;;3.92;;
46897;SDS011;32646;50.958;6.258;2023-09-07T04:18:11;9.80;;;4.30;;
46897;SDS011;32646;50.958;6.258;2023-09-07T04:20:39;9.32;;;3.85;;
46897;SDS011;32646;50.958;6.258;2023-09-07T04:23:06;11.23;;;4.22;;
46897;SDS011;32646;50.958;6.258;2023-09-07T04:25:32;8.07;;;4.00;;
46897;SDS011;32646;50.958;6.258;2023-09-07T04:27:59;9.90;;;4.38;;
46897;SDS011;32646;50.958;6.258;2023-09-07T04:30:26;9.35;;;3.50;;
46897;SDS011;32646;50.958;6.258;2023-09-07T04:32:52;7.65;;;4.03;;
46897;SDS011;32646;50.958;6.258;2023-09-07T04:35:19;8.63;;;4.15;;
46897;SDS011;32646;50.958;6.258;2023-09-07T04:37:46;9.43;;;5.18;;
46897;SDS011;32646;50.958;6.258;2023-09-07T04:40:13;6.00;;;3.78;;
46897;SDS011;32646;50.958;6.258;2023-09-07T04:42:39;7.40;;;3.95;;
46897;SDS011;32646;50.958;6.258;2023-09-07T04:45:06;7.00;;;3.78;;
46897;SDS011;32646;50.958;6.258;2023-09-07T04:47:33;10.52;;;4.18;;
46897;SDS011;32646;50.958;6.258;2023-09-07T04:50:00;8.30;;;3.78;;
46897;SDS011;32646;50.958;6.258;2023-09-07T04:52:27;8.10;;;4.07;;
46897;SDS011;32646;50.958;6.258;2023-09-07T04:54:53;8.07;;;3.65;;
46897;SDS011;32646;50.958;6.258;2023-09-07T04:57:20;8.73;;;3.95;;
46897;SDS011;32646;50.958;6.258;2023-09-07T04:59:46;10.32;;;4.63;;
46897;SDS011;32646;50.958;6.258;2023-09-07T05:02:13;9.90;;;4.10;;
46897;SDS011;32646;50.958;6.258;2023-09-07T05:04:40;9.27;;;3.75;;
46897;SDS011;32646;50.958;6.258;2023-09-07T05:07:06;8.75;;;4.32;;
46897;SDS011;32646;50.958;6.258;2023-09-07T05:09:33;9.90;;;4.20;;
46897;SDS011;32646;50.958;6.258;2023-09-07T05:11:59;7.85;;;3.90;;
46897;SDS011;32646;50.958;6.258;2023-09-07T05:14:26;8.48;;;4.35;;
46897;SDS011;32646;50.958;6.258;2023-09-07T05:16:53;9.00;;;3.85;;
46897;SDS011;32646;50.958;6.258;2023-09-07T05:19:21;7.10;;;4.05;;
46897;SDS011;32646;50.958;6.258;2023-09-07T05:21:48;7.63;;;3.40;;
46897;SDS011;32646;50.958;6.258;2023-09-07T05:24:14;8.55;;;4.32;;
46897;SDS011;32646;50.958;6.258;2023-09-07T05:26:41;7.10;;;3.63;;
46897;SDS011;32646;50.958;6.258;2023-09-07T05:29:08;7.32;;;3.50;;
46897;SDS011;32646;50.958;6.258;2023-09-07T05:31:35;6.97;;;3.38;;
46897;SDS011;32646;50.958;6.258;2023-09-07T05:34:02;6.60;;;3.30;;
46897;SDS011;32646;50.958;6.258;2023-09-07T05:36:29;7.78;;;3.90;;
46897;SDS011;32646;50.958;6.258;2023-09-07T05:38:56;9.35;;;4.05;;
46897;SDS011;32646;50.958;6.258;2023-09-07T05:41:22;8.05;;;3.88;;
46897;SDS011;32646;50.958;6.258;2023-09-07T05:43:49;6.25;;;3.30;;
46897;SDS011;32646;50.958;6.258;2023-09-07T05:46:15;7.35;;;3.60;;
46897;SDS011;32646;50.958;6.258;2023-09-07T05:48:42;6.75;;;3.33;;
46897;SDS011;32646;50.958;6.258;2023-09-07T05:51:09;7.88;;;3.33;;
46897;SDS011;32646;50.958;6.258;2023-09-07T05:53:35;7.22;;;3.65;;
46897;SDS011;32646;50.958;6.258;2023-09-07T05:56:02;6.40;;;3.40;;
46897;SDS011;32646;50.958;6.258;2023-09-07T05:58:29;6.82;;;3.20;;
46897;SDS011;32646;50.958;6.258;2023-09-07T06:00:57;7.50;;;3.10;;
46897;SDS011;32646;50.958;6.258;2023-09-07T06:03:24;8.73;;;3.50;;
46897;SDS011;32646;50.958;6.258;2023-09-07T06:05:52;6.15;;;3.10;;
46897;SDS011;32646;50.958;6.258;2023-09-07T06:08:18;6.25;;;2.95;;
46897;SDS011;32646;50.958;6.258;2023-09-07T06:10:45;6.85;;;3.25;;
46897;SDS011;32646;50.958;6.258;2023-09-07T06:13:11;5.90;;;3.17;;
46897;SDS011;32646;50.958;6.258;2023-09-07T06:15:38;6.60;;;3.40;;
46897;SDS011;32646;50.958;6.258;2023-09-07T06:18:05;5.65;;;2.72;;
46897;SDS011;32646;50.958;6.258;2023-09-07T06:20:33;5.95;;;3.03;;
46897;SDS011;32646;50.958;6.258;2023-09-07T06:23:00;5.63;;;2.65;;
46897;SDS011;32646;50.958;6.258;2023-09-07T06:25:28;6.97;;;3.50;;
46897;SDS011;32646;50.958;6.258;2023-09-07T06:27:55;8.30;;;3.15;;
46897;SDS011;32646;50.958;6.258;2023-09-07T06:30:22;7.00;;;2.60;;
46897;SDS011;32646;50.958;6.258;2023-09-07T06:32:49;5.50;;;3.00;;
46897;SDS011;32646;50.958;6.258;2023-09-07T06:35:15;5.90;;;2.88;;
46897;SDS011;32646;50.958;6.258;2023-09-07T06:37:42;6.75;;;3.10;;
46897;SDS011;32646;50.958;6.258;2023-09-07T06:40:09;6.97;;;3.00;;
46897;SDS011;32646;50.958;6.258;2023-09-07T06:42:36;6.25;;;2.85;;
46897;SDS011;32646;50.958;6.258;2023-09-07T06:45:03;7.90;;;2.92;;
46897;SDS011;32646;50.958;6.258;2023-09-07T06:47:31;6.40;;;2.90;;
46897;SDS011;32646;50.958;6.258;2023-09-07T06:49:58;7.07;;;3.08;;
46897;SDS011;32646;50.958;6.258;2023-09-07T06:52:24;7.15;;;3.00;;
46897;SDS011;32646;50.958;6.258;2023-09-07T06:54:52;8.23;;;3.10;;
46897;SDS011;32646;50.958;6.258;2023-09-07T06:57:19;6.75;;;3.30;;
46897;SDS011;32646;50.958;6.258;2023-09-07T06:59:46;6.68;;;3.03;;
46897;SDS011;32646;50.958;6.258;2023-09-07T07:02:13;7.22;;;3.10;;
46897;SDS011;32646;50.958;6.258;2023-09-07T07:04:40;5.32;;;2.70;;
46897;SDS011;32646;50.958;6.258;2023-09-07T07:07:07;5.57;;;2.88;;
46897;SDS011;32646;50.958;6.258;2023-09-07T07:09:33;5.50;;;3.10;;
46897;SDS011;32646;50.958;6.258;2023-09-07T07:12:00;7.95;;;3.10;;
46897;SDS011;32646;50.958;6.258;2023-09-07T07:14:27;6.68;;;2.72;;
46897;SDS011;32646;50.958;6.258;2023-09-07T07:16:53;6.65;;;3.00;;
46897;SDS011;32646;50.958;6.258;2023-09-07T07:19:20;6.05;;;3.13;;
46897;SDS011;32646;50.958;6.258;2023-09-07T07:21:47;6.65;;;3.17;;
46897;SDS011;32646;50.958;6.258;2023-09-07T07:24:14;7.85;;;3.28;;
46897;SDS011;32646;50.958;6.258;2023-09-07T07:26:41;6.30;;;2.83;;
46897;SDS011;32646;50.958;6.258;2023-09-07T07:29:07;7.68;;;3.20;;
46897;SDS011;32646;50.958;6.258;2023-09-07T07:31:34;6.97;;;2.80;;
46897;SDS011;32646;50.958;6.258;2023-09-07T07:34:00;5.97;;;3.15;;
46897;SDS011;32646;50.958;6.258;2023-09-07T07:36:27;5.72;;;2.70;;
46897;SDS011;32646;50.958;6.258;2023-09-07T07:38:56;5.53;;;3.25;;
46897;SDS011;32646;50.958;6.258;2023-09-07T07:41:23;6.78;;;2.70;;
46897;SDS011;32646;50.958;6.258;2023-09-07T07:43:49;6.90;;;3.45;;
46897;SDS011;32646;50.958;6.258;2023-09-07T07:46:16;6.07;;;3.17;;
46897;SDS011;32646;50.958;6.258;2023-09-07T07:48:43;6.97;;;3.40;;
46897;SDS011;32646;50.958;6.258;2023-09-07T07:51:09;8.52;;;3.35;;
46897;SDS011;32646;50.958;6.258;2023-09-07T07:53:37;8.10;;;3.38;;
46897;SDS011;32646;50.958;6.258;2023-09-07T07:56:04;7.43;;;3.45;;
46897;SDS011;32646;50.958;6.258;2023-09-07T07:58:31;7.20;;;3.10;;
46897;SDS011;32646;50.958;6.258;2023-09-07T08:00:58;5.15;;;2.55;;
46897;SDS011;32646;50.958;6.258;2023-09-07T08:03:24;9.32;;;2.75;;
46897;SDS011;32646;50.958;6.258;2023-09-07T08:05:51;6.00;;;3.00;;
46897;SDS011;32646;50.958;6.258;2023-09-07T08:08:18;5.55;;;2.88;;
46897;SDS011;32646;50.958;6.258;2023-09-07T08:10:44;4.72;;;2.65;;
46897;SDS011;32646;50.958;6.258;2023-09-07T08:13:11;6.22;;;3.05;;
46897;SDS011;32646;50.958;6.258;2023-09-07T08:15:38;5.93;;;2.90;;
46897;SDS011;32646;50.958;6.258;2023-09-07T08:18:05;5.68;;;2.83;;
46897;SDS011;32646;50.958;6.258;2023-09-07T08:20:32;4.80;;;2.80;;
46897;SDS011;32646;50.958;6.258;2023-09-07T08:22:59;7.07;;;2.75;;
46897;SDS011;32646;50.958;6.258;2023-09-07T08:25:25;6.20;;;2.63;;
46897;SDS011;32646;50.958;6.258;2023-09-07T08:27:52;4.22;;;2.42;;
46897;SDS011;32646;50.958;6.258;2023-09-07T08:30:20;6.30;;;2.78;;
46897;SDS011;32646;50.958;6.258;2023-09-07T08:32:47;4.50;;;2.40;;
46897;SDS011;32646;50.958;6.258;2023-09-07T08:35:14;8.30;;;2.63;;
46897;SDS011;32646;50.958;6.258;2023-09-07T08:37:40;6.50;;;3.13;;
46897;SDS011;32646;50.958;6.258;2023-09-07T08:40:07;5.32;;;2.70;;
46897;SDS011;32646;50.958;6.258;2023-09-07T08:42:40;10.48;;;3.10;;
46897;SDS011;32646;50.958;6.258;2023-09-07T08:45:08;6.78;;;3.03;;
46897;SDS011;32646;50.958;6.258;2023-09-07T08:47:35;6.90;;;2.80;;
46897;SDS011;32646;50.958;6.258;2023-09-07T08:50:06;5.60;;;2.97;;
46897;SDS011;32646;50.958;6.258;2023-09-07T08:52:34;4.47;;;2.85;;
46897;SDS011;32646;50.958;6.258;2023-09-07T08:55:01;5.50;;;2.80;;
46897;SDS011;32646;50.958;6.258;2023-09-07T08:57:29;5.85;;;3.00;;
46897;SDS011;32646;50.958;6.258;2023-09-07T08:59:56;6.03;;;2.88;;
46897;SDS011;32646;50.958;6.258;2023-09-07T09:02:23;7.03;;;3.03;;
46897;SDS011;32646;50.958;6.258;2023-09-07T09:04:50;5.25;;;2.63;;
46897;SDS011;32646;50.958;6.258;2023-09-07T09:07:18;6.75;;;3.42;;
46897;SDS011;32646;50.958;6.258;2023-09-07T09:09:45;4.53;;;2.45;;
46897;SDS011;32646;50.958;6.258;2023-09-07T09:12:12;6.70;;;2.55;;
46897;SDS011;32646;50.958;6.258;2023-09-07T09:14:43;6.03;;;2.80;;
46897;SDS011;32646;50.958;6.258;2023-09-07T09:17:11;5.65;;;2.97;;
46897;SDS011;32646;50.958;6.258;2023-09-07T09:19:38;4.70;;;2.90;;
46897;SDS011;32646;50.958;6.258;2023-09-07T09:22:05;4.97;;;2.90;;
46897;SDS011;32646;50.958;6.258;2023-09-07T09:24:32;8.00;;;2.90;;
46897;SDS011;32646;50.958;6.258;2023-09-07T09:27:01;4.80;;;2.85;;
46897;SDS011;32646;50.958;6.258;2023-09-07T09:29:29;4.57;;;2.65;;
46897;SDS011;32646;50.958;6.258;2023-09-07T09:31:59;6.65;;;3.13;;
46897;SDS011;32646;50.958;6.258;2023-09-07T09:34:30;5.60;;;2.78;;
46897;SDS011;32646;50.958;6.258;2023-09-07T09:36:59;5.65;;;2.53;;
46897;SDS011;32646;50.958;6.258;2023-09-07T09:39:26;5.30;;;2.97;;
46897;SDS011;32646;50.958;6.258;2023-09-07T09:41:52;5.57;;;2.78;;
46897;SDS011;32646;50.958;6.258;2023-09-07T09:44:20;5.38;;;2.60;;
46897;SDS011;32646;50.958;6.258;2023-09-07T09:46:48;6.07;;;2.50;;
46897;SDS011;32646;50.958;6.258;2023-09-07T09:49:17;4.55;;;2.83;;
46897;SDS011;32646;50.958;6.258;2023-09-07T09:51:46;5.75;;;2.70;;
46897;SDS011;32646;50.958;6.258;2023-09-07T09:54:16;9.13;;;2.70;;
46897;SDS011;32646;50.958;6.258;2023-09-07T09:56:46;6.95;;;2.80;;
46897;SDS011;32646;50.958;6.258;2023-09-07T09:59:16;6.40;;;2.72;;
46897;SDS011;32646;50.958;6.258;2023-09-07T10:01:44;6.20;;;2.50;;
46897;SDS011;32646;50.958;6.258;2023-09-07T10:04:12;6.78;;;2.67;;
46897;SDS011;32646;50.958;6.258;2023-09-07T10:06:53;6.78;;;3.00;;
46897;SDS011;32646;50.958;6.258;2023-09-07T10:09:34;4.80;;;2.75;;
46897;SDS011;32646;50.958;6.258;2023-09-07T10:12:01;8.27;;;2.95;;
46897;SDS011;32646;50.958;6.258;2023-09-07T10:14:39;8.45;;;2.95;;
46897;SDS011;32646;50.958;6.258;2023-09-07T10:20:01;7.20;;;2.60;;
46897;SDS011;32646;50.958;6.258;2023-09-07T10:22:34;5.78;;;2.85;;
46897;SDS011;32646;50.958;6.258;2023-09-07T10:25:00;6.50;;;2.92;;
46897;SDS011;32646;50.958;6.258;2023-09-07T10:27:35;6.28;;;2.53;;
46897;SDS011;32646;50.958;6.258;2023-09-07T10:30:08;6.00;;;3.17;;
46897;SDS011;32646;50.958;6.258;2023-09-07T10:32:39;6.32;;;2.95;;
46897;SDS011;32646;50.958;6.258;2023-09-07T10:35:13;5.60;;;2.90;;
46897;SDS011;32646;50.958;6.258;2023-09-07T10:37:45;5.82;;;2.47;;
46897;SDS011;32646;50.958;6.258;2023-09-07T10:40:12;7.18;;;2.85;;
46897;SDS011;32646;50.958;6.258;2023-09-07T10:42:44;6.50;;;2.80;;
46897;SDS011;32646;50.958;6.258;2023-09-07T10:45:14;9.30;;;2.88;;
46897;SDS011;32646;50.958;6.258;2023-09-07T10:47:43;5.18;;;2.58;;
46897;SDS011;32646;50.958;6.258;2023-09-07T10:50:10;10.25;;;2.60;;
46897;SDS011;32646;50.958;6.258;2023-09-07T10:52:40;5.40;;;2.70;;
46897;SDS011;32646;50.958;6.258;2023-09-07T10:55:08;5.78;;;2.70;;
46897;SDS011;32646;50.958;6.258;2023-09-07T10:57:42;5.88;;;3.05;;
46897;SDS011;32646;50.958;6.258;2023-09-07T11:00:12;5.72;;;2.53;;
46897;SDS011;32646;50.958;6.258;2023-09-07T11:02:40;6.43;;;2.85;;
46897;SDS011;32646;50.958;6.258;2023-09-07T11:05:09;4.70;;;2.50;;
46897;SDS011;32646;50.958;6.258;2023-09-07T11:07:36;5.32;;;2.50;;
46897;SDS011;32646;50.958;6.258;2023-09-07T11:10:05;6.95;;;2.80;;
46897;SDS011;32646;50.958;6.258;2023-09-07T11:12:36;4.90;;;2.50;;
46897;SDS011;32646;50.958;6.258;2023-09-07T11:15:04;4.68;;;2.47;;
46897;SDS011;32646;50.958;6.258;2023-09-07T11:17:30;4.60;;;2.50;;
46897;SDS011;32646;50.958;6.258;2023-09-07T11:19:57;5.60;;;2.78;;
46897;SDS011;32646;50.958;6.258;2023-09-07T11:22:24;4.75;;;2.75;;
46897;SDS011;32646;50.958;6.258;2023-09-07T11:24:50;4.75;;;2.40;;
46897;SDS011;32646;50.958;6.258;2023-09-07T11:27:17;5.28;;;3.00;;
46897;SDS011;32646;50.958;6.258;2023-09-07T11:29:50;7.45;;;2.97;;
46897;SDS011;32646;50.958;6.258;2023-09-07T11:32:17;5.70;;;2.92;;
46897;SDS011;32646;50.958;6.258;2023-09-07T11:34:48;5.22;;;2.55;;
46897;SDS011;32646;50.958;6.258;2023-09-07T11:37:16;5.43;;;2.88;;
46897;SDS011;32646;50.958;6.258;2023-09-07T11:39:48;5.85;;;2.45;;
46897;SDS011;32646;50.958;6.258;2023-09-07T11:42:15;7.90;;;2.60;;
46897;SDS011;32646;50.958;6.258;2023-09-07T11:44:42;5.35;;;2.55;;
46897;SDS011;32646;50.958;6.258;2023-09-07T11:47:08;6.45;;;2.65;;
46897;SDS011;32646;50.958;6.258;2023-09-07T11:49:35;5.25;;;2.47;;
46897;SDS011;32646;50.958;6.258;2023-09-07T11:52:01;7.32;;;2.30;;
46897;SDS011;32646;50.958;6.258;2023-09-07T11:54:31;6.90;;;2.80;;
46897;SDS011;32646;50.958;6.258;2023-09-07T11:56:58;6.45;;;2.65;;
46897;SDS011;32646;50.958;6.258;2023-09-07T11:59:24;6.20;;;2.50;;
46897;SDS011;32646;50.958;6.258;2023-09-07T12:01:51;5.90;;;2.55;;
46897;SDS011;32646;50.958;6.258;2023-09-07T12:04:17;5.25;;;2.50;;
46897;SDS011;32646;50.958;6.258;2023-09-07T12:06:44;5.45;;;2.50;;
46897;SDS011;32646;50.958;6.258;2023-09-07T12:09:11;4.57;;;2.45;;
46897;SDS011;32646;50.958;6.258;2023-09-07T12:11:37;6.07;;;2.80;;
46897;SDS011;32646;50.958;6.258;2023-09-07T12:14:05;5.63;;;2.40;;
46897;SDS011;32646;50.958;6.258;2023-09-07T12:16:32;5.70;;;2.42;;
46897;SDS011;32646;50.958;6.258;2023-09-07T12:18:59;4.32;;;2.40;;
46897;SDS011;32646;50.958;6.258;2023-09-07T12:21:25;4.60;;;2.45;;
46897;SDS011;32646;50.958;6.258;2023-09-07T12:23:52;4.30;;;2.35;;
46897;SDS011;32646;50.958;6.258;2023-09-07T12:26:19;4.97;;;2.35;;
46897;SDS011;32646;50.958;6.258;2023-09-07T12:28:46;5.80;;;2.97;;
46897;SDS011;32646;50.958;6.258;2023-09-07T12:31:13;4.85;;;2.53;;
46897;SDS011;32646;50.958;6.258;2023-09-07T12:33:39;4.45;;;2.53;;
46897;SDS011;32646;50.958;6.258;2023-09-07T12:36:06;5.13;;;2.50;;
46897;SDS011;32646;50.958;6.258;2023-09-07T12:38:33;5.00;;;2.55;;
46897;SDS011;32646;50.958;6.258;2023-09-07T12:40:59;5.38;;;2.60;;
46897;SDS011;32646;50.958;6.258;2023-09-07T12:43:26;5.13;;;2.67;;
46897;SDS011;32646;50.958;6.258;2023-09-07T12:45:53;5.22;;;2.83;;
46897;SDS011;32646;50.958;6.258;2023-09-07T12:48:19;6.53;;;2.75;;
46897;SDS011;32646;50.958;6.258;2023-09-07T12:50:46;5.43;;;2.75;;
46897;SDS011;32646;50.958;6.258;2023-09-07T12:53:13;7.50;;;2.90;;
46897;SDS011;32646;50.958;6.258;2023-09-07T12:55:41;6.38;;;2.80;;
46897;SDS011;32646;50.958;6.258;2023-09-07T12:58:07;4.72;;;2.70;;
46897;SDS011;32646;50.958;6.258;2023-09-07T13:00:34;4.50;;;2.60;;
46897;SDS011;32646;50.958;6.258;2023-09-07T13:03:01;4.70;;;2.65;;
46897;SDS011;32646;50.958;6.258;2023-09-07T13:05:27;5.25;;;2.92;;
46897;SDS011;32646;50.958;6.258;2023-09-07T13:07:54;4.93;;;2.65;;
46897;SDS011;32646;50.958;6.258;2023-09-07T13:10:21;5.43;;;2.80;;
46897;SDS011;32646;50.958;6.258;2023-09-07T13:12:47;7.13;;;3.03;;
46897;SDS011;32646;50.958;6.258;2023-09-07T13:15:14;5.30;;;2.63;;
46897;SDS011;32646;50.958;6.258;2023-09-07T13:17:40;5.10;;;2.63;;
46897;SDS011;32646;50.958;6.258;2023-09-07T13:20:07;5.10;;;2.63;;
46897;SDS011;32646;50.958;6.258;2023-09-07T13:22:34;5.43;;;2.80;;
46897;SDS011;32646;50.958;6.258;2023-09-07T13:25:01;8.15;;;3.03;;
46897;SDS011;32646;50.958;6.258;2023-09-07T13:27:27;5.45;;;3.10;;
46897;SDS011;32646;50.958;6.258;2023-09-07T13:29:54;5.22;;;2.70;;
46897;SDS011;32646;50.958;6.258;2023-09-07T13:32:20;6.40;;;3.22;;
46897;SDS011;32646;50.958;6.258;2023-09-07T13:34:47;6.30;;;2.67;;
46897;SDS011;32646;50.958;6.258;2023-09-07T13:37:14;8.20;;;2.70;;
46897;SDS011;32646;50.958;6.258;2023-09-07T13:39:40;6.00;;;3.17;;
46897;SDS011;32646;50.958;6.258;2023-09-07T13:42:07;5.22;;;2.95;;
46897;SDS011;32646;50.958;6.258;2023-09-07T13:44:33;4.55;;;2.50;;
46897;SDS011;32646;50.958;6.258;2023-09-07T13:47:00;7.28;;;3.08;;
46897;SDS011;32646;50.958;6.258;2023-09-07T13:49:27;5.20;;;2.40;;
46897;SDS011;32646;50.958;6.258;2023-09-07T13:51:53;5.43;;;2.97;;
46897;SDS011;32646;50.958;6.258;2023-09-07T13:54:20;5.68;;;3.13;;
46897;SDS011;32646;50.958;6.258;2023-09-07T13:56:46;6.35;;;2.78;;
46897;SDS011;32646;50.958;6.258;2023-09-07T13:59:13;5.55;;;2.78;;
46897;SDS011;32646;50.958;6.258;2023-09-07T14:01:40;6.60;;;2.70;;
46897;SDS011;32646;50.958;6.258;2023-09-07T14:04:06;5.63;;;2.63;;
46897;SDS011;32646;50.958;6.258;2023-09-07T14:06:33;5.28;;;2.90;;
46897;SDS011;32646;50.958;6.258;2023-09-07T14:09:00;6.38;;;2.60;;
46897;SDS011;32646;50.958;6.258;2023-09-07T14:11:26;5.43;;;3.13;;
46897;SDS011;32646;50.958;6.258;2023-09-07T14:13:53;8.45;;;2.97;;
46897;SDS011;32646;50.958;6.258;2023-09-07T14:16:20;5.65;;;2.55;;
46897;SDS011;32646;50.958;6.258;2023-09-07T14:18:47;4.93;;;2.85;;
46897;SDS011;32646;50.958;6.258;2023-09-07T14:21:14;4.85;;;2.40;;
46897;SDS011;32646;50.958;6.258;2023-09-07T14:23:42;6.55;;;2.70;;
46897;SDS011;32646;50.958;6.258;2023-09-07T14:26:09;4.97;;;2.65;;
46897;SDS011;32646;50.958;6.258;2023-09-07T14:28:36;5.82;;;2.92;;
46897;SDS011;32646;50.958;6.258;2023-09-07T14:31:03;6.00;;;2.78;;
46897;SDS011;32646;50.958;6.258;2023-09-07T14:33:30;4.60;;;2.58;;
46897;SDS011;32646;50.958;6.258;2023-09-07T14:35:57;5.72;;;2.55;;
46897;SDS011;32646;50.958;6.258;2023-09-07T14:38:23;5.28;;;2.60;;
46897;SDS011;32646;50.958;6.258;2023-09-07T14:40:50;6.43;;;2.47;;
46897;SDS011;32646;50.958;6.258;2023-09-07T14:43:17;5.10;;;2.42;;
46897;SDS011;32646;50.958;6.258;2023-09-07T14:45:43;7.78;;;2.70;;
46897;SDS011;32646;50.958;6.258;2023-09-07T14:48:10;4.18;;;2.45;;